Time;durP1;ratioP1;P1;durP2;ratioP2;P2;SDS_P1;SDS_P2;PMS_P1;PMS_P2;Temp;Humidity;BMP_temperature;BMP_pressure;BME280_temperature;BME280_humidity;BME280_pressure;Samples;Min_cycle;Max_cycle;Signal;HPM_P1;HPM_P2
2022/01/04 00:02:20;;;;;;;6.90;2.43;;;;;;;10.83;100.00;99485.44;5078907;28;20207;-60
2022/01/04 00:04:48;;;;;;;5.03;2.10;;;;;;;10.87;100.00;99478.78;5071943;28;20241;-59
2022/01/04 00:07:17;;;;;;;7.40;2.20;;;;;;;11.01;100.00;99473.72;5072446;28;20655;-60
2022/01/04 00:09:45;;;;;;;6.77;2.30;;;;;;;11.05;100.00;99475.06;5075698;28;20216;-60
2022/01/04 00:14:58;;;;;;;6.53;2.13;;;;;;;11.01;100.00;99468.44;5085424;28;20289;-59
2022/01/04 00:17:29;;;;;;;8.80;2.10;;;;;;;10.54;100.00;99461.41;5078198;28;20206;-60
2022/01/04 00:19:56;;;;;;;6.23;2.07;;;;;;;10.56;100.00;99454.06;5078065;28;20734;-61
2022/01/04 00:22:26;;;;;;;4.13;1.87;;;;;;;10.42;100.00;99436.25;5070170;28;20218;-60
2022/01/04 00:24:53;;;;;;;6.10;1.80;;;;;;;10.45;100.00;99443.88;5083773;28;20314;-60
2022/01/04 00:27:21;;;;;;;4.37;1.47;;;;;;;10.38;100.00;99437.63;5075800;28;20233;-60
2022/01/04 00:29:49;;;;;;;4.20;1.60;;;;;;;10.39;100.00;99426.81;5076809;28;20211;-60
2022/01/04 00:32:16;;;;;;;4.60;1.73;;;;;;;10.36;100.00;99426.34;5072671;28;20216;-60
2022/01/04 00:34:44;;;;;;;5.50;2.13;;;;;;;10.51;100.00;99411.38;5066755;28;20676;-60
2022/01/04 00:37:12;;;;;;;8.20;1.73;;;;;;;10.24;100.00;99402.06;5066815;28;20220;-60
2022/01/04 00:39:41;;;;;;;5.67;1.70;;;;;;;10.44;100.00;99394.53;5084397;28;20292;-61
2022/01/04 00:42:10;;;;;;;4.03;1.80;;;;;;;10.50;100.00;99385.88;5073413;28;20217;-60
2022/01/04 00:44:38;;;;;;;3.00;1.47;;;;;;;10.44;100.00;99384.75;5075232;28;20319;-61
2022/01/04 00:47:08;;;;;;;3.80;1.60;;;;;;;10.35;100.00;99382.31;5084288;28;20476;-61
2022/01/04 00:49:35;;;;;;;4.07;1.60;;;;;;;10.49;100.00;99370.97;5087973;28;20209;-61
2022/01/04 00:52:03;;;;;;;5.93;2.17;;;;;;;10.36;100.00;99378.66;5088995;28;20238;-61
2022/01/04 00:54:33;;;;;;;4.07;1.60;;;;;;;10.36;100.00;99370.72;5067325;28;20296;-61
2022/01/04 00:57:03;;;;;;;6.00;1.60;;;;;;;10.52;100.00;99373.28;5078175;28;20212;-59
2022/01/04 00:59:30;;;;;;;4.27;1.80;;;;;;;10.40;100.00;99362.22;5073787;28;20274;-61
2022/01/04 01:01:58;;;;;;;8.47;1.80;;;;;;;10.48;100.00;99353.41;5087465;28;20229;-61
2022/01/04 01:04:27;;;;;;;5.17;1.80;;;;;;;10.46;100.00;99344.81;5087827;28;20217;-61
2022/01/04 01:06:54;;;;;;;4.77;1.70;;;;;;;10.44;100.00;99322.97;5084171;28;20296;-61
2022/01/04 01:09:26;;;;;;;6.90;1.90;;;;;;;10.47;100.00;99327.91;5082196;28;20216;-61
2022/01/04 01:11:53;;;;;;;4.93;2.03;;;;;;;10.55;100.00;99320.72;5081327;28;20222;-60
2022/01/04 01:14:22;;;;;;;6.97;1.90;;;;;;;10.56;100.00;99314.41;5080629;28;20220;-60
2022/01/04 01:16:50;;;;;;;5.00;1.90;;;;;;;10.63;100.00;99308.44;5087387;28;20519;-59
2022/01/04 01:19:18;;;;;;;6.20;1.80;;;;;;;10.53;100.00;99306.00;5083173;28;20242;-60
2022/01/04 01:21:46;;;;;;;3.27;1.43;;;;;;;10.64;100.00;99297.66;5082271;28;20299;-60
2022/01/04 01:24:18;;;;;;;3.47;1.60;;;;;;;10.64;100.00;99291.53;5059553;28;20213;-60
2022/01/04 01:26:46;;;;;;;3.93;1.90;;;;;;;10.59;100.00;99286.75;5089119;28;20261;-60
2022/01/04 01:29:14;;;;;;;4.47;1.30;;;;;;;10.72;100.00;99289.66;5079972;28;20214;-60
2022/01/04 01:31:43;;;;;;;5.50;2.13;;;;;;;10.68;100.00;99279.56;5071949;28;20244;-60
2022/01/04 01:34:11;;;;;;;5.20;1.50;;;;;;;10.69;100.00;99267.94;5075445;28;20211;-60
2022/01/04 01:36:38;;;;;;;3.77;1.30;;;;;;;10.77;100.00;99271.38;5083008;28;20302;-60
2022/01/04 01:39:06;;;;;;;6.50;1.83;;;;;;;10.72;100.00;99267.59;5091191;28;20304;-60
2022/01/04 01:41:34;;;;;;;4.33;1.40;;;;;;;10.76;100.00;99268.88;5087850;28;20217;-59
2022/01/04 01:44:02;;;;;;;5.30;1.47;;;;;;;10.75;100.00;99257.44;5083322;28;20218;-60
2022/01/04 01:46:29;;;;;;;3.07;1.73;;;;;;;10.81;100.00;99262.06;5074181;28;20316;-60
2022/01/04 01:48:58;;;;;;;5.43;1.93;;;;;;;10.90;100.00;99250.38;5084106;28;20250;-60
2022/01/04 01:51:30;;;;;;;3.63;1.37;;;;;;;10.88;100.00;99241.78;5076826;28;20310;-60
2022/01/04 01:53:58;;;;;;;2.83;1.33;;;;;;;10.85;100.00;99242.13;5067844;28;20258;-60
2022/01/04 01:56:26;;;;;;;3.60;1.37;;;;;;;10.90;100.00;99238.94;5052607;28;20205;-60
2022/01/04 01:58:55;;;;;;;3.03;1.57;;;;;;;11.04;100.00;99232.84;5048991;28;20514;-60
2022/01/04 02:01:23;;;;;;;2.23;1.37;;;;;;;11.10;100.00;99220.66;5041438;28;20630;-60
2022/01/04 02:03:51;;;;;;;3.10;1.43;;;;;;;10.96;100.00;99224.13;5051251;28;20219;-60
2022/01/04 02:06:21;;;;;;;3.43;1.40;;;;;;;11.01;100.00;99214.63;5050081;28;20242;-60
2022/01/04 02:08:49;;;;;;;3.17;1.40;;;;;;;11.05;100.00;99207.97;5060016;28;20305;-60
2022/01/04 02:11:20;;;;;;;2.50;1.27;;;;;;;10.94;100.00;99193.31;5055246;28;20212;-60
2022/01/04 02:13:47;;;;;;;1.50;1.10;;;;;;;10.98;100.00;99199.09;5034497;28;20221;-60
2022/01/04 02:16:17;;;;;;;3.30;1.47;;;;;;;10.98;100.00;99191.13;5053098;28;20291;-59
2022/01/04 02:18:44;;;;;;;4.33;1.20;;;;;;;11.14;100.00;99182.16;5067260;28;20210;-60
2022/01/04 02:21:14;;;;;;;3.47;1.30;;;;;;;11.09;100.00;99173.91;5062520;28;20302;-60
2022/01/04 02:23:41;;;;;;;5.00;1.50;;;;;;;11.21;100.00;99177.78;5055429;28;20220;-60
2022/01/04 02:26:09;;;;;;;2.37;1.07;;;;;;;11.15;100.00;99160.75;5047344;28;20264;-60
2022/01/04 02:28:37;;;;;;;2.60;1.20;;;;;;;11.17;100.00;99171.19;5068027;28;20254;-60
2022/01/04 02:31:05;;;;;;;3.47;1.57;;;;;;;11.09;100.00;99165.97;5050077;28;20216;-60
2022/01/04 02:33:33;;;;;;;3.43;1.47;;;;;;;11.10;100.00;99164.94;5049720;28;20236;-60
2022/01/04 02:36:01;;;;;;;3.07;1.23;;;;;;;11.11;100.00;99145.38;5050419;28;20299;-60
2022/01/04 02:38:30;;;;;;;3.27;1.23;;;;;;;10.99;100.00;99146.88;5050992;28;20220;-60
2022/01/04 02:40:58;;;;;;;2.70;1.23;;;;;;;11.00;100.00;99140.53;5048627;28;20808;-60
2022/01/04 02:43:26;;;;;;;3.23;1.53;;;;;;;11.07;100.00;99136.16;5063156;28;20215;-60
2022/01/04 02:45:54;;;;;;;2.53;1.20;;;;;;;11.03;100.00;99129.56;5042572;28;20319;-61
2022/01/04 02:48:22;;;;;;;3.00;1.60;;;;;;;11.06;100.00;99129.19;5046969;28;20277;-60
2022/01/04 02:50:51;;;;;;;2.70;1.40;;;;;;;10.86;100.00;99121.78;5059652;28;20303;-59
2022/01/04 02:53:19;;;;;;;3.17;1.60;;;;;;;10.98;100.00;99124.00;5074277;28;20246;-60
2022/01/04 02:55:48;;;;;;;4.33;1.37;;;;;;;11.05;100.00;99109.00;5086461;28;20203;-60
2022/01/04 02:58:16;;;;;;;3.43;1.60;;;;;;;10.93;100.00;99106.78;5062939;28;20667;-59
2022/01/04 03:00:45;;;;;;;7.40;1.50;;;;;;;10.91;100.00;99106.13;5067689;28;20204;-60
2022/01/04 03:03:14;;;;;;;3.50;1.63;;;;;;;10.99;100.00;99105.25;5060922;28;20224;-60
2022/01/04 03:05:41;;;;;;;4.57;1.87;;;;;;;10.96;100.00;99105.59;5070991;28;20215;-60
2022/01/04 03:08:09;;;;;;;2.83;1.40;;;;;;;10.89;100.00;99094.91;5052933;28;20649;-60
2022/01/04 03:10:37;;;;;;;2.60;1.30;;;;;;;10.78;100.00;99095.38;5073543;28;20215;-60
2022/01/04 03:13:07;;;;;;;4.83;2.10;;;;;;;10.79;100.00;99088.25;5077204;28;20214;-60
2022/01/04 03:15:34;;;;;;;5.33;1.80;;;;;;;10.90;100.00;99088.63;5081800;28;20684;-60
2022/01/04 03:18:02;;;;;;;4.90;1.77;;;;;;;10.89;100.00;99083.50;5089383;28;20297;-60
2022/01/04 03:20:30;;;;;;;3.53;1.67;;;;;;;10.74;100.00;99083.47;5075151;28;20213;-60
2022/01/04 03:22:58;;;;;;;5.13;1.60;;;;;;;10.65;100.00;99071.31;5068011;28;20222;-60
2022/01/04 03:25:26;;;;;;;5.33;1.90;;;;;;;10.81;100.00;99071.16;5070983;28;20279;-60
2022/01/04 03:27:54;;;;;;;2.37;1.30;;;;;;;10.91;100.00;99069.00;5080231;28;20317;-60
2022/01/04 03:30:23;;;;;;;4.77;1.43;;;;;;;10.93;100.00;99063.53;5075586;28;20618;-60
2022/01/04 03:32:51;;;;;;;3.40;1.77;;;;;;;10.89;100.00;99056.97;5063700;28;20247;-60
2022/01/04 03:35:18;;;;;;;3.10;1.53;;;;;;;10.94;100.00;99044.78;5075616;28;20229;-60
2022/01/04 03:37:46;;;;;;;2.83;1.43;;;;;;;10.97;100.00;99042.78;5073896;28;20224;-60
2022/01/04 03:40:14;;;;;;;4.53;1.40;;;;;;;10.85;100.00;99032.63;5070965;28;20620;-60
2022/01/04 03:42:42;;;;;;;2.60;1.60;;;;;;;11.02;100.00;99037.72;5067529;28;20682;-60
2022/01/04 03:45:10;;;;;;;3.73;1.67;;;;;;;10.91;100.00;99023.94;5065108;28;20295;-60
2022/01/04 03:47:40;;;;;;;4.00;1.60;;;;;;;10.86;100.00;99021.03;5063841;28;20297;-61
2022/01/04 03:50:08;;;;;;;4.97;1.50;;;;;;;10.93;100.00;99021.91;5068646;28;20211;-60
2022/01/04 03:52:36;;;;;;;2.93;1.37;;;;;;;10.93;100.00;99013.97;5079149;28;20658;-59
2022/01/04 03:55:05;;;;;;;3.00;1.50;;;;;;;11.00;100.00;99015.88;5051781;28;20295;-60
2022/01/04 03:57:33;;;;;;;3.73;1.70;;;;;;;10.93;100.00;99005.19;5078811;28;20300;-60
2022/01/04 04:00:01;;;;;;;3.47;1.40;;;;;;;10.94;100.00;99002.34;5073024;28;20279;-60
2022/01/04 04:02:28;;;;;;;5.13;1.57;;;;;;;10.97;100.00;98997.69;5065665;28;20215;-60
2022/01/04 04:04:58;;;;;;;5.07;1.33;;;;;;;11.00;100.00;98994.66;5080384;28;20547;-60
2022/01/04 04:07:25;;;;;;;2.67;1.27;;;;;;;11.05;100.00;98992.28;5071492;28;20232;-60
2022/01/04 04:09:53;;;;;;;2.87;1.20;;;;;;;11.06;100.00;98999.22;5065694;28;20216;-60
2022/01/04 04:12:23;;;;;;;3.30;1.33;;;;;;;10.99;100.00;98990.38;5071305;28;20210;-60
2022/01/04 04:14:50;;;;;;;3.53;1.03;;;;;;;10.96;100.00;98982.78;5079974;28;20559;-60
2022/01/04 04:17:19;;;;;;;4.23;1.53;;;;;;;10.87;100.00;98982.91;5082116;28;20230;-60
2022/01/04 04:19:47;;;;;;;5.33;1.33;;;;;;;10.94;100.00;98982.97;5084462;28;20211;-60
2022/01/04 04:22:16;;;;;;;4.20;1.50;;;;;;;10.89;100.00;98975.59;5076956;28;20531;-60
2022/01/04 04:24:44;;;;;;;2.40;1.23;;;;;;;10.87;100.00;98969.63;5078020;28;20629;-60
2022/01/04 04:27:12;;;;;;;4.27;1.53;;;;;;;10.92;100.00;98967.25;5075513;28;20230;-60
2022/01/04 04:29:40;;;;;;;4.73;1.77;;;;;;;11.00;100.00;98957.53;5067996;28;20250;-60
2022/01/04 04:32:09;;;;;;;3.60;1.40;;;;;;;10.91;100.00;98949.69;5085454;28;20225;-60
2022/01/04 04:34:37;;;;;;;3.10;1.17;;;;;;;10.92;100.00;98946.03;5078362;28;20287;-60
2022/01/04 04:37:05;;;;;;;3.40;1.33;;;;;;;10.92;100.00;98937.25;5067568;28;20221;-59
2022/01/04 04:39:34;;;;;;;2.93;1.50;;;;;;;10.81;100.00;98930.63;5057142;28;20211;-60
2022/01/04 04:42:03;;;;;;;5.40;1.30;;;;;;;10.84;100.00;98930.22;5065584;28;20601;-60
2022/01/04 04:44:31;;;;;;;3.57;1.17;;;;;;;10.94;100.00;98914.03;5085522;28;20238;-60
2022/01/04 04:46:59;;;;;;;4.47;1.40;;;;;;;10.89;100.00;98922.56;5076963;28;20312;-60
2022/01/04 04:49:26;;;;;;;3.13;1.40;;;;;;;10.84;100.00;98901.06;5071104;28;20211;-60
2022/01/04 04:51:57;;;;;;;3.83;1.30;;;;;;;10.85;100.00;98901.88;5065644;28;20215;-61
2022/01/04 04:54:24;;;;;;;4.13;1.40;;;;;;;10.92;100.00;98902.78;5083282;28;20299;-60
2022/01/04 04:56:54;;;;;;;2.67;1.30;;;;;;;10.75;100.00;98896.88;5074005;28;20294;-60
2022/01/04 04:59:21;;;;;;;5.33;1.50;;;;;;;10.67;100.00;98891.69;5080519;28;20339;-60
2022/01/04 05:01:49;;;;;;;4.67;1.73;;;;;;;10.71;100.00;98894.81;5078576;28;20209;-60
2022/01/04 05:04:18;;;;;;;6.10;1.90;;;;;;;10.73;100.00;98882.97;5076077;28;20596;-60
2022/01/04 05:06:46;;;;;;;3.07;1.40;;;;;;;10.80;100.00;98877.78;5063599;28;20672;-60
2022/01/04 05:09:14;;;;;;;5.40;1.50;;;;;;;10.71;100.00;98870.94;5052501;28;20208;-60
2022/01/04 05:11:42;;;;;;;2.93;1.60;;;;;;;10.71;100.00;98869.13;5067954;28;20614;-60
2022/01/04 05:14:11;;;;;;;3.30;1.40;;;;;;;10.63;100.00;98866.59;5070357;28;20668;-60
2022/01/04 05:16:39;;;;;;;3.13;1.73;;;;;;;10.73;100.00;98872.38;5081727;28;20246;-60
2022/01/04 05:19:07;;;;;;;2.57;1.43;;;;;;;10.56;100.00;98865.66;5068017;28;20203;-61
2022/01/04 05:21:34;;;;;;;3.50;1.47;;;;;;;10.59;100.00;98862.66;5065979;28;20305;-61
2022/01/04 05:24:02;;;;;;;4.93;1.80;;;;;;;10.62;100.00;98857.00;5065366;28;20730;-61
2022/01/04 05:26:30;;;;;;;3.80;1.73;;;;;;;10.55;100.00;98853.44;5068857;28;20306;-61
2022/01/04 05:28:58;;;;;;;3.80;1.50;;;;;;;10.41;100.00;98851.63;5067010;28;20669;-61
2022/01/04 05:31:31;;;;;;;3.80;1.70;;;;;;;10.48;100.00;98852.53;5088426;28;20214;-61
2022/01/04 05:33:59;;;;;;;2.50;1.40;;;;;;;10.46;100.00;98841.31;5085745;28;20723;-61
2022/01/04 05:36:26;;;;;;;3.47;1.53;;;;;;;10.51;100.00;98833.63;5071705;28;20216;-61
2022/01/04 05:38:54;;;;;;;6.27;1.87;;;;;;;10.47;100.00;98824.38;5075498;28;20214;-61
2022/01/04 05:41:22;;;;;;;3.53;1.40;;;;;;;10.56;100.00;98829.38;5084769;28;20825;-61
2022/01/04 05:43:50;;;;;;;3.27;1.53;;;;;;;10.35;100.00;98828.53;5065655;28;20200;-61
2022/01/04 05:46:17;;;;;;;3.83;1.60;;;;;;;10.42;100.00;98813.53;5056838;28;20323;-60
2022/01/04 05:48:46;;;;;;;4.47;1.83;;;;;;;10.44;100.00;98812.34;5074132;28;20313;-60
2022/01/04 05:51:14;;;;;;;4.53;1.57;;;;;;;10.50;100.00;98808.94;5081274;28;20264;-60
2022/01/04 05:53:42;;;;;;;6.10;2.00;;;;;;;10.52;100.00;98800.81;5082250;28;20326;-60
2022/01/04 05:56:10;;;;;;;4.70;1.60;;;;;;;10.52;100.00;98793.69;5070741;28;20655;-61
2022/01/04 05:58:38;;;;;;;3.33;1.80;;;;;;;10.57;100.00;98793.09;5082421;28;20210;-61
2022/01/04 06:01:05;;;;;;;3.17;1.60;;;;;;;10.54;100.00;98780.25;5078934;28;20238;-61
2022/01/04 06:03:34;;;;;;;2.90;1.40;;;;;;;10.66;100.00;98785.84;5076602;28;20207;-61
2022/01/04 06:06:03;;;;;;;3.93;1.50;;;;;;;10.73;100.00;98776.94;5067264;28;20343;-61
2022/01/04 06:08:37;;;;;;;3.83;1.20;;;;;;;10.70;100.00;98777.34;5068741;28;20219;-61
2022/01/04 06:11:07;;;;;;;5.13;2.07;;;;;;;10.71;100.00;98768.38;5082355;28;20465;-61
2022/01/04 06:16:25;;;;;;;3.50;1.40;;;;;;;10.82;100.00;98759.91;5076131;28;20682;-61
2022/01/04 06:18:53;;;;;;;3.10;1.33;;;;;;;10.72;100.00;98753.31;5080273;28;20210;-61
2022/01/04 06:21:22;;;;;;;3.43;1.27;;;;;;;10.65;100.00;98753.22;5085195;28;20212;-61
2022/01/04 06:23:50;;;;;;;3.93;1.40;;;;;;;10.66;100.00;98746.91;5069173;28;20298;-59
2022/01/04 06:26:18;;;;;;;5.47;1.43;;;;;;;10.52;100.00;98742.50;5067117;28;20366;-61
2022/01/04 06:28:46;;;;;;;3.00;1.07;;;;;;;10.64;100.00;98740.19;5077729;28;20232;-61
2022/01/04 06:31:13;;;;;;;2.93;1.27;;;;;;;10.59;100.00;98748.69;5080748;28;20210;-61
2022/01/04 06:33:41;;;;;;;2.40;1.30;;;;;;;10.67;100.00;98751.22;5069481;28;20219;-61
2022/01/04 06:36:09;;;;;;;2.40;1.13;;;;;;;10.63;100.00;98739.38;5085573;28;20308;-61
2022/01/04 06:38:38;;;;;;;2.53;1.30;;;;;;;10.60;100.00;98734.44;5060302;28;20207;-61
2022/01/04 06:41:05;;;;;;;5.60;1.40;;;;;;;10.61;100.00;98732.59;5069830;28;20214;-61
2022/01/04 06:43:33;;;;;;;3.70;1.30;;;;;;;10.61;100.00;98735.25;5079539;28;20671;-60
2022/01/04 06:46:01;;;;;;;3.40;1.33;;;;;;;10.66;100.00;98738.97;5074242;28;20302;-61
2022/01/04 06:48:28;;;;;;;4.00;1.40;;;;;;;10.60;100.00;98717.72;5082111;28;20233;-61
2022/01/04 06:50:57;;;;;;;3.53;1.47;;;;;;;10.63;100.00;98720.81;5079686;28;20287;-61
2022/01/04 06:53:24;;;;;;;2.77;1.40;;;;;;;10.73;100.00;98723.13;5076803;28;20241;-60
2022/01/04 06:55:54;;;;;;;4.57;1.50;;;;;;;10.57;100.00;98710.94;5062920;28;20211;-61
2022/01/04 06:58:21;;;;;;;2.83;1.20;;;;;;;10.62;100.00;98707.75;5087450;28;20235;-61
2022/01/04 07:00:49;;;;;;;5.10;1.13;;;;;;;10.53;100.00;98707.88;5076518;28;20203;-61
2022/01/04 07:03:17;;;;;;;2.07;1.03;;;;;;;10.64;100.00;98693.31;5077626;28;20211;-60
2022/01/04 07:05:45;;;;;;;1.93;0.83;;;;;;;10.67;100.00;98703.50;5066577;28;20204;-61
2022/01/04 07:08:13;;;;;;;3.13;1.07;;;;;;;10.64;100.00;98690.66;5067492;28;20324;-61
2022/01/04 07:10:40;;;;;;;3.57;1.10;;;;;;;10.61;100.00;98698.16;5074196;28;20205;-61
2022/01/04 07:13:09;;;;;;;3.17;0.90;;;;;;;10.63;100.00;98696.97;5082732;28;20673;-61
2022/01/04 07:15:42;;;;;;;2.40;1.20;;;;;;;10.54;100.00;98693.63;5081137;28;20216;-61
2022/01/04 07:18:10;;;;;;;2.97;1.33;;;;;;;10.51;100.00;98686.03;5064699;28;20673;-61
2022/01/04 07:20:38;;;;;;;1.97;0.90;;;;;;;10.57;100.00;98687.91;5080162;28;20682;-61
2022/01/04 07:23:05;;;;;;;1.93;0.73;;;;;;;10.49;100.00;98681.94;5077642;28;20206;-61
2022/01/04 07:25:33;;;;;;;2.50;1.13;;;;;;;10.64;100.00;98681.88;5067768;28;20246;-61
2022/01/04 07:28:01;;;;;;;1.77;0.80;;;;;;;10.75;100.00;98668.06;5068616;28;20207;-61
2022/01/04 07:30:31;;;;;;;6.27;1.03;;;;;;;10.68;100.00;98669.84;5074308;28;20266;-60
2022/01/04 07:32:59;;;;;;;2.80;1.17;;;;;;;10.73;100.00;98672.78;5068233;28;20675;-61
2022/01/04 07:35:26;;;;;;;3.23;1.07;;;;;;;10.75;100.00;98663.59;5069375;28;20297;-58
2022/01/04 07:37:54;;;;;;;1.80;1.10;;;;;;;10.75;100.00;98662.78;5067436;28;20246;-60
2022/01/04 07:40:22;;;;;;;3.70;1.10;;;;;;;10.76;100.00;98670.53;5076892;28;20259;-59
2022/01/04 07:42:49;;;;;;;2.37;1.00;;;;;;;10.79;100.00;98670.16;5076392;28;20294;-59
2022/01/04 07:45:18;;;;;;;2.77;1.20;;;;;;;10.84;100.00;98667.75;5067979;28;20406;-59
2022/01/04 07:47:47;;;;;;;1.73;0.90;;;;;;;10.89;100.00;98660.03;5076632;28;20331;-59
2022/01/04 07:50:15;;;;;;;2.83;1.00;;;;;;;11.06;100.00;98660.56;5060687;28;20311;-59
2022/01/04 07:52:42;;;;;;;2.63;0.97;;;;;;;10.88;100.00;98654.94;5069998;28;20649;-59
2022/01/04 07:55:10;;;;;;;12.87;1.73;;;;;;;10.82;100.00;98651.19;5067381;28;20589;-61
2022/01/04 07:57:39;;;;;;;2.40;1.10;;;;;;;10.78;100.00;98647.31;5050301;28;20641;-59
2022/01/04 08:00:08;;;;;;;6.73;1.60;;;;;;;10.80;100.00;98642.66;5086131;28;20229;-60
2022/01/04 08:02:35;;;;;;;2.10;0.93;;;;;;;10.80;100.00;98637.34;5073074;28;20853;-59
2022/01/04 08:05:05;;;;;;;2.33;0.87;;;;;;;10.76;100.00;98636.06;5071217;28;20223;-60
2022/01/04 08:07:33;;;;;;;1.93;0.93;;;;;;;10.77;100.00;98627.13;5063470;28;20220;-59
2022/01/04 08:10:00;;;;;;;1.77;0.80;;;;;;;10.84;100.00;98627.97;5082882;28;20241;-62
2022/01/04 08:12:28;;;;;;;1.40;0.70;;;;;;;10.90;100.00;98621.91;5085354;28;20202;-60
2022/01/04 08:14:56;;;;;;;3.87;1.10;;;;;;;10.92;100.00;98611.09;5077742;28;20212;-59
2022/01/04 08:17:24;;;;;;;4.60;1.90;;;;;;;11.07;100.00;98614.47;5080995;28;20309;-60
2022/01/04 08:19:51;;;;;;;2.43;0.80;;;;;;;10.99;100.00;98600.53;5071852;28;20674;-60
2022/01/04 08:22:20;;;;;;;4.17;1.00;;;;;;;10.93;100.00;98594.97;5083268;28;20207;-60
2022/01/04 08:24:48;;;;;;;2.80;0.80;;;;;;;10.90;100.00;98594.56;5068896;28;20234;-60
2022/01/04 08:27:16;;;;;;;2.80;0.80;;;;;;;10.92;100.00;98592.53;5080242;28;20221;-60
2022/01/04 08:29:44;;;;;;;3.33;0.93;;;;;;;10.99;100.00;98584.63;5080678;28;20330;-60
2022/01/04 08:32:12;;;;;;;4.90;1.03;;;;;;;11.02;100.00;98579.72;5078171;28;20319;-59
2022/01/04 08:34:40;;;;;;;2.37;0.87;;;;;;;10.94;100.00;98586.00;5071504;28;20207;-60
2022/01/04 08:37:07;;;;;;;2.77;0.93;;;;;;;11.09;100.00;98574.44;5067797;28;20567;-60
2022/01/04 08:39:37;;;;;;;1.93;0.97;;;;;;;11.18;100.00;98565.31;5075731;28;20241;-60
2022/01/04 08:42:05;;;;;;;2.67;1.03;;;;;;;11.20;100.00;98571.25;5071879;28;20223;-60
2022/01/04 08:44:36;;;;;;;2.03;1.07;;;;;;;11.10;100.00;98574.25;5065761;28;20242;-62
2022/01/04 08:47:04;;;;;;;2.83;1.00;;;;;;;11.19;100.00;98569.59;5068957;28;20203;-61
2022/01/04 08:49:32;;;;;;;3.43;1.03;;;;;;;11.26;100.00;98570.44;5083426;28;20474;-60
2022/01/04 08:52:00;;;;;;;5.20;1.23;;;;;;;11.34;100.00;98567.63;5077090;28;20399;-61
2022/01/04 08:54:28;;;;;;;4.20;1.00;;;;;;;11.32;100.00;98559.88;5080053;28;20390;-60
2022/01/04 08:56:57;;;;;;;1.73;0.80;;;;;;;11.35;100.00;98565.78;5075885;28;20207;-61
2022/01/04 08:59:28;;;;;;;3.43;0.90;;;;;;;11.48;100.00;98564.00;5085732;28;20328;-59
2022/01/04 09:01:56;;;;;;;2.13;0.83;;;;;;;11.49;100.00;98572.78;5083141;28;20215;-60
2022/01/04 09:04:24;;;;;;;2.63;1.00;;;;;;;11.53;100.00;98561.56;5078105;28;20302;-61
2022/01/04 09:06:52;;;;;;;3.73;1.10;;;;;;;11.38;100.00;98568.88;5066654;28;20206;-61
2022/01/04 09:09:20;;;;;;;5.60;1.40;;;;;;;11.47;100.00;98562.34;5080846;28;20239;-60
2022/01/04 09:11:48;;;;;;;3.07;1.30;;;;;;;11.55;100.00;98561.34;5088944;28;20221;-59
2022/01/04 09:14:24;;;;;;;4.07;1.53;;;;;;;11.60;100.00;98567.72;5085499;28;20381;-59
2022/01/04 09:19:38;;;;;;;4.60;1.40;;;;;;;11.63;100.00;98582.41;5079131;28;20245;-59
2022/01/04 09:22:06;;;;;;;3.10;1.10;;;;;;;11.58;100.00;98575.06;5070142;28;20213;-59
2022/01/04 09:24:34;;;;;;;2.70;0.90;;;;;;;11.47;100.00;98567.66;5071507;28;20231;-62
2022/01/04 09:27:06;;;;;;;2.13;0.80;;;;;;;11.53;100.00;98572.16;5093153;28;20269;-60
2022/01/04 09:29:35;;;;;;;3.10;0.70;;;;;;;11.52;100.00;98593.63;5081323;28;20277;-59
2022/01/04 09:32:05;;;;;;;1.87;0.50;;;;;;;10.97;100.00;98591.94;5074993;28;20211;-60
2022/01/04 09:34:35;;;;;;;1.03;0.50;;;;;;;11.01;100.00;98588.69;5068470;28;20290;-59
2022/01/04 09:37:04;;;;;;;0.90;0.40;;;;;;;10.96;98.15;98590.31;5068069;28;20322;-59
2022/01/04 09:39:32;;;;;;;1.87;0.47;;;;;;;11.09;98.14;98590.38;5090625;28;20202;-60
2022/01/04 09:42:00;;;;;;;0.90;0.40;;;;;;;11.07;96.22;98597.72;5085244;28;20217;-60
2022/01/04 09:44:28;;;;;;;1.50;0.60;;;;;;;10.90;96.83;98608.66;5082202;28;20246;-60
2022/01/04 09:47:02;;;;;;;1.73;0.60;;;;;;;10.96;97.00;98599.09;5075971;28;20266;-60
2022/01/04 09:49:31;;;;;;;2.03;0.93;;;;;;;10.82;96.20;98602.66;5056254;28;20335;-60
2022/01/04 09:51:59;;;;;;;1.93;0.80;;;;;;;10.99;95.68;98603.19;5071607;28;20203;-61
2022/01/04 09:54:28;;;;;;;1.27;0.70;;;;;;;11.00;94.80;98610.91;5071256;28;20219;-60
2022/01/04 09:56:56;;;;;;;3.43;0.90;;;;;;;10.92;94.95;98601.28;5078022;28;20777;-59
2022/01/04 09:59:24;;;;;;;1.00;0.53;;;;;;;10.94;93.60;98599.28;5077082;28;20215;-60
2022/01/04 10:02:00;;;;;;;1.30;0.60;;;;;;;10.81;94.22;98591.25;5055854;28;20711;-60
2022/01/04 10:04:29;;;;;;;1.80;0.67;;;;;;;10.69;94.49;98605.25;5086171;28;20244;-60
2022/01/04 10:07:00;;;;;;;2.27;0.90;;;;;;;10.67;95.68;98600.13;5084600;28;20210;-60
2022/01/04 10:09:36;;;;;;;1.47;0.53;;;;;;;10.29;96.50;98604.13;5079946;28;20598;-60
2022/01/04 10:12:07;;;;;;;1.20;0.40;;;;;;;10.55;96.31;98605.13;5069847;28;20225;-60
2022/01/04 10:14:38;;;;;;;2.07;0.70;;;;;;;10.74;95.65;98603.63;5060321;28;20278;-60
2022/01/04 10:17:09;;;;;;;1.83;0.50;;;;;;;10.81;94.64;98620.44;5057918;28;20296;-60
2022/01/04 10:19:41;;;;;;;2.67;0.57;;;;;;;10.86;94.09;98622.47;5072222;28;20214;-60
2022/01/04 10:22:18;;;;;;;2.70;1.07;;;;;;;10.79;93.46;98630.41;5069887;28;20218;-60
2022/01/04 10:24:48;;;;;;;1.00;0.43;;;;;;;10.78;93.47;98615.50;5079340;28;20316;-60
2022/01/04 10:27:24;;;;;;;3.10;0.80;;;;;;;10.55;93.25;98614.94;5077205;28;20299;-54
2022/01/04 10:30:20;;;;;;;0.63;0.40;;;;;;;10.61;92.94;98650.44;5056202;28;20720;-60
2022/01/04 10:32:51;;;;;;;3.60;1.00;;;;;;;10.50;93.72;98623.44;5053126;28;20245;-60
2022/01/04 10:35:30;;;;;;;3.73;1.00;;;;;;;10.36;94.64;98618.25;5080286;28;20212;-59
2022/01/04 10:38:00;;;;;;;2.10;0.47;;;;;;;10.57;93.97;98655.28;5076600;28;20252;-60
2022/01/04 10:40:29;;;;;;;1.47;0.60;;;;;;;10.55;92.76;98647.53;5078027;28;20292;-60
2022/01/04 10:43:08;;;;;;;0.90;0.57;;;;;;;10.40;93.37;98633.56;5068858;28;20212;-62
2022/01/04 10:45:36;;;;;;;2.10;0.60;;;;;;;10.63;92.99;98664.31;5058525;28;20330;-60
2022/01/04 10:48:16;;;;;;;1.90;0.90;;;;;;;10.67;92.38;98666.38;5051506;28;20210;-60
2022/01/04 10:50:47;;;;;;;1.30;0.70;;;;;;;10.38;90.95;98653.31;5089599;28;20684;-61
2022/01/04 10:53:24;;;;;;;1.70;0.50;;;;;;;10.33;91.79;98651.22;5071845;28;20265;-60
2022/01/04 10:55:57;;;;;;;1.70;0.70;;;;;;;10.36;92.73;98668.59;5072175;28;20305;-60
2022/01/04 10:58:28;;;;;;;3.07;0.80;;;;;;;10.37;92.88;98675.53;5083268;28;20309;-58
2022/01/04 11:00:59;;;;;;;1.63;0.80;;;;;;;10.38;92.37;98671.88;5081319;28;20203;-60
2022/01/04 11:03:32;;;;;;;2.00;1.00;;;;;;;10.54;91.82;98677.72;5084740;28;20250;-59
2022/01/04 11:06:05;;;;;;;1.90;0.63;;;;;;;10.42;91.58;98683.72;5086683;28;20225;-60
2022/01/04 11:08:33;;;;;;;3.63;0.40;;;;;;;10.39;91.41;98684.06;5072553;28;20526;-61
2022/01/04 11:11:01;;;;;;;1.20;0.50;;;;;;;10.48;90.38;98693.53;5062285;28;20660;-61
2022/01/04 11:13:29;;;;;;;1.10;0.60;;;;;;;10.47;91.04;98689.25;5063348;28;20339;-61
2022/01/04 11:15:57;;;;;;;1.67;0.70;;;;;;;10.55;90.54;98678.53;5069374;28;20612;-61
2022/01/04 11:18:26;;;;;;;2.70;0.70;;;;;;;10.34;91.43;98692.63;5071904;28;20206;-61
2022/01/04 11:20:55;;;;;;;1.43;0.60;;;;;;;10.37;90.74;98681.66;5069702;28;20210;-61
2022/01/04 11:23:26;;;;;;;1.60;0.43;;;;;;;10.33;90.60;98693.63;5074018;28;20620;-60
2022/01/04 11:25:54;;;;;;;1.37;0.43;;;;;;;10.37;89.51;98688.78;5060813;28;20249;-61
2022/01/04 11:28:23;;;;;;;1.23;0.50;;;;;;;10.32;90.09;98699.09;5083161;28;20212;-61
2022/01/04 11:31:12;;;;;;;1.23;0.50;;;;;;;10.34;89.33;98708.50;5085841;28;20225;-61
2022/01/04 11:33:51;;;;;;;1.00;0.57;;;;;;;10.25;89.71;98712.28;5079756;28;20214;-61
2022/01/04 11:36:20;;;;;;;1.53;0.50;;;;;;;10.39;89.53;98708.75;5082080;28;20300;-61
2022/01/04 11:38:49;;;;;;;2.53;0.40;;;;;;;10.25;89.06;98730.81;5080967;28;20549;-61
2022/01/04 11:41:23;;;;;;;0.50;0.33;;;;;;;10.35;89.09;98736.66;5073721;28;20200;-61
2022/01/04 11:43:51;;;;;;;1.73;0.50;;;;;;;10.31;89.60;98737.19;5050186;28;20222;-61